Aviation Digital Data Service (ADDS)

Output produced by TAFs form (1953 UTC 30 September 2014)
found at http://aviationweather.gov/adds/tafs/
 
KGUP 301722Z 3018/0118 VRB05KT P6SM SKC 
     FM301930 27010G18KT P6SM SKC 
     FM010100 VRB04KT P6SM SKC